Latest Weather Observations for Williamson

IDQ60801

Issued at 11:43 am EST Friday 4 December 2020 (issued every 10 minutes, with the page automatically refreshed every 10 minutes)

About weather observations | Map of weather stations | Latest weather observations for QLD | Other Formats
Station Details ID: 033195 Name: WILLIAMSON Lat: -22.47 Lon: 150.18 Height: 27.6 m
Data from the previous 72 hours. | See also: Recent months at Williamson
Date/Time
EST
Temp
°C
App
Temp
°C
Dew
Point
°C
Rel
Hum
%
Delta-T
°C
Wind Press
QNH
hPa
Press
MSL
hPa
Rain since
9am
mm
Dir  Spd
km/h
Gust
km/h
Spd
kts
Gust
kts
04/11:30am 32.3 32.0 17.4 41 9.5 NE 15 24 8 13 1015.1 1014.9 0.0
04/11:00am 31.6 30.9 16.4 40 9.5 NE 15 26 8 14 1015.5 1015.3 0.0
04/10:30am 29.9 30.1 16.7 45 8.3 ENE 11 20 6 11 1016.0 1015.8 0.0
04/10:00am 29.8 29.4 16.2 43 8.5 E 13 28 7 15 1016.3 1016.1 0.0
04/09:30am 30.2 30.8 16.9 44 8.4 NE 9 26 5 14 1016.7 1016.5 0.0
04/09:00am 29.0 29.1 17.5 49 7.3 NE 13 22 7 12 1016.7 1016.5 0.0
04/08:30am 28.0 28.3 17.8 54 6.5 ENE 13 20 7 11 1017.1 1016.9 0.0
04/08:00am 28.0 29.0 18.7 57 6.0 ENE 11 19 6 10 1017.3 1017.1 0.0
04/07:30am 27.0 27.6 18.6 60 5.4 E 13 20 7 11 1017.3 1017.1 0.0
04/07:00am 26.8 28.7 19.7 65 4.6 E 9 17 5 9 1017.3 1017.1 0.0
04/06:30am 22.6 26.2 19.8 84 1.8 CALM 0 0 0 0 1017.4 1017.2 0.0
04/06:00am 20.2 23.2 18.5 90 1.1 CALM 0 0 0 0 1017.3 1017.1 0.0
04/05:30am 18.6 21.2 17.6 94 0.6 CALM 0 4 0 2 1016.9 1016.7 0.0
04/05:00am 18.9 21.6 17.7 93 0.7 CALM 0 2 0 1 1016.7 1016.5 0.0
04/04:30am 18.9 21.7 17.9 94 0.6 CALM 0 0 0 0 1016.5 1016.3 0.0
04/04:00am 20.3 22.7 18.8 91 0.9 S 4 7 2 4 1016.6 1016.4 0.0
04/03:30am 20.5 22.7 19.3 93 0.8 SSE 6 7 3 4 1016.3 1016.1 0.0
04/03:00am 19.4 22.3 18.2 93 0.7 CALM 0 0 0 0 1016.3 1016.1 0.0
04/02:30am 19.7 22.7 18.5 93 0.7 CALM 0 0 0 0 1016.4 1016.2 0.0
04/02:00am 19.8 22.6 17.9 89 1.2 CALM 0 0 0 0 1016.6 1016.4 0.0
04/01:30am 20.5 23.5 18.4 88 1.3 CALM 0 0 0 0 1016.6 1016.4 0.0
04/01:00am 20.9 23.9 18.5 86 1.5 CALM 0 0 0 0 1016.8 1016.6 0.0
04/12:30am 21.3 24.4 18.7 85 1.6 CALM 0 0 0 0 1017.0 1016.8 0.0
04/12:00am 22.4 25.7 19.0 81 2.2 CALM 0 0 0 0 1017.1 1016.9 0.0
 
Date/Time
EST
Temp
°C
App
Temp
°C
Dew
Point
°C
Rel
Hum
%
Delta-T
°C
Wind Press
QNH
hPa
Press
MSL
hPa
Rain since
9am
mm
Dir  Spd
km/h
Gust
km/h
Spd
kts
Gust
kts
03/11:30pm 23.0 26.3 19.2 79 2.4 CALM 0 0 0 0 1017.3 1017.1 0.0
03/11:00pm 23.2 26.4 18.9 77 2.7 CALM 0 6 0 3 1017.4 1017.2 0.0
03/10:30pm 24.1 27.2 19.4 75 3.0 S 2 7 1 4 1017.5 1017.3 0.0
03/10:00pm 24.5 26.7 19.6 74 3.1 S 7 11 4 6 1017.3 1017.1 0.0
03/09:30pm 24.7 27.0 19.5 73 3.3 SE 6 9 3 5 1017.1 1016.9 0.0
03/09:00pm 25.0 26.8 19.6 72 3.5 ESE 9 17 5 9 1016.7 1016.5 0.0
03/08:30pm 25.1 26.9 19.5 71 3.6 ESE 9 17 5 9 1016.5 1016.3 0.0
03/08:00pm 25.4 27.6 19.5 70 3.8 ESE 7 13 4 7 1016.2 1016.0 0.0
03/07:30pm 25.8 27.5 19.4 67 4.1 E 9 19 5 10 1016.2 1016.0 0.0
03/07:00pm 26.2 27.7 18.9 64 4.7 E 9 17 5 9 1015.7 1015.5 0.0
03/06:30pm 26.8 27.9 18.9 62 5.1 E 11 19 6 10 1015.2 1015.0 0.0
03/06:00pm 27.8 27.7 17.9 54 6.3 ENE 15 24 8 13 1015.1 1014.9 0.0
03/05:30pm 28.6 28.4 17.5 51 7.0 ENE 15 28 8 15 1015.0 1014.8 0.0
03/05:00pm 29.2 28.0 17.1 48 7.6 ENE 19 30 10 16 1015.0 1014.8 0.0
03/04:30pm 30.0 29.3 16.4 44 8.5 E 15 28 8 15 1014.9 1014.7 0.0
03/04:00pm 29.9 28.1 16.0 43 8.6 ENE 20 33 11 18 1014.7 1014.5 0.0
03/03:30pm 30.6 29.3 15.8 40 9.2 ENE 17 28 9 15 1014.6 1014.4 0.0
03/03:00pm 31.1 30.4 16.3 41 9.3 E 15 26 8 14 1014.7 1014.5 0.0
03/02:30pm 31.0 29.3 15.8 40 9.4 ENE 19 28 10 15 1015.0 1014.8 0.0
03/02:00pm 31.4 30.6 16.2 40 9.5 E 15 28 8 15 1015.3 1015.1 0.0
03/01:30pm 31.1 30.3 17.0 42 8.9 NE 17 30 9 16 1015.7 1015.5 0.0
03/01:00pm 32.5 31.9 17.5 40 9.6 ENE 17 30 9 16 1015.8 1015.6 0.0
03/12:30pm 31.9 30.5 17.0 41 9.5 E 20 30 11 16 1016.3 1016.1 0.0
03/12:00pm 30.7 29.1 15.9 40 9.2 ESE 19 30 10 16 1016.6 1016.4 0.0
03/11:30am 30.6 29.2 16.6 43 8.8 E 19 30 10 16 1016.9 1016.7 0.0
03/11:00am 30.2 29.3 16.9 44 8.4 E 17 30 9 16 1017.0 1016.8 0.0
03/10:30am 30.5 30.2 18.2 47 7.9 E 17 26 9 14 1017.0 1016.8 0.0
03/10:00am 30.2 28.8 16.6 44 8.5 ENE 19 33 10 18 1017.1 1016.9 0.0
03/09:30am 29.2 28.5 18.3 51 7.0 E 19 32 10 17 1017.3 1017.1 0.0
03/09:00am 28.8 28.1 18.3 53 6.7 E 19 30 10 16 1017.2 1017.0 0.4
03/08:30am 28.8 28.8 18.9 55 6.4 ESE 17 26 9 14 1017.3 1017.1 0.4
03/08:00am 27.2 27.2 19.0 61 5.3 E 17 28 9 15 1017.5 1017.3 0.4
03/07:30am 27.1 27.5 18.9 61 5.3 ESE 15 24 8 13 1017.6 1017.4 0.4
03/07:00am 26.6 27.2 20.2 68 4.2 ESE 17 28 9 15 1017.6 1017.4 0.4
03/06:30am 26.1 27.7 20.7 72 3.5 ESE 13 19 7 10 1017.4 1017.2 0.4
03/06:00am 25.1 28.3 21.2 79 2.6 E 6 11 3 6 1017.1 1016.9 0.4
03/05:30am 24.8 27.7 21.1 80 2.4 E 7 15 4 8 1016.7 1016.5 0.4
03/05:00am 24.6 27.5 21.1 81 2.3 E 7 11 4 6 1016.4 1016.2 0.4
03/04:30am 24.8 27.5 21.3 81 2.3 E 9 15 5 8 1016.1 1015.9 0.4
03/04:00am 24.8 28.0 21.7 83 2.1 E 7 13 4 7 1016.0 1015.8 0.4
03/03:30am 24.8 28.7 22.5 87 1.5 E 6 9 3 5 1015.7 1015.5 0.4
03/03:00am 24.5 28.5 22.0 86 1.7 E 4 11 2 6 1015.3 1015.1 0.4
03/02:30am 24.8 28.7 22.5 87 1.5 E 6 13 3 7 1014.9 1014.7 0.4
03/02:00am 24.9 29.4 23.0 89 1.3 ESE 4 7 2 4 1014.7 1014.5 0.4
03/01:30am 24.9 28.6 22.2 85 1.8 E 6 9 3 5 1014.8 1014.6 0.4
03/01:00am 25.8 29.2 21.7 78 2.7 NE 6 9 3 5 1014.8 1014.6 0.0
03/12:30am 25.3 28.4 21.4 79 2.6 NE 7 11 4 6 1015.1 1014.9 0.0
03/12:00am 25.5 28.2 21.4 78 2.7 NE 9 15 5 8 1015.5 1015.3 0.0
 
Date/Time
EST
Temp
°C
App
Temp
°C
Dew
Point
°C
Rel
Hum
%
Delta-T
°C
Wind Press
QNH
hPa
Press
MSL
hPa
Rain since
9am
mm
Dir  Spd
km/h
Gust
km/h
Spd
kts
Gust
kts
02/11:30pm 25.6 28.5 21.7 79 2.6 NE 9 13 5 7 1015.7 1015.5 0.0
02/11:00pm 25.7 28.6 21.8 79 2.6 NE 9 13 5 7 1016.0 1015.8 0.0
02/10:30pm 25.7 29.0 21.8 79 2.6 NE 7 13 4 7 1016.1 1015.9 0.0
02/10:00pm 25.9 29.2 21.8 78 2.7 NE 7 13 4 7 1016.0 1015.8 0.0
02/09:30pm 25.9 29.2 21.8 78 2.7 NE 7 11 4 6 1015.9 1015.7 0.0
02/09:00pm 26.2 29.3 22.1 78 2.7 NE 9 15 5 8 1015.8 1015.6 0.0
02/08:30pm 26.4 28.7 22.0 77 2.9 NE 13 22 7 12 1015.6 1015.4 0.0
02/08:00pm 26.5 28.7 21.9 76 3.1 NE 13 20 7 11 1015.2 1015.0 0.0
02/07:30pm 26.7 29.0 22.1 76 3.1 NE 13 22 7 12 1015.0 1014.8 0.0
02/07:00pm 27.0 29.1 21.7 73 3.5 NE 13 24 7 13 1014.5 1014.3 0.0
02/06:30pm 27.4 28.8 21.9 72 3.7 NE 17 30 9 16 1014.1 1013.9 0.0
02/06:00pm 28.0 29.8 21.8 69 4.2 NNE 15 26 8 14 1014.0 1013.8 0.0
02/05:30pm 28.8 29.7 20.8 62 5.3 NE 17 28 9 15 1013.8 1013.6 0.0
02/05:00pm 29.2 29.6 20.6 59 5.7 NE 19 32 10 17 1013.7 1013.5 0.0
02/04:30pm 30.0 30.9 20.8 57 6.1 NE 17 30 9 16 1013.6 1013.4 0.0
02/04:00pm 29.6 30.8 21.5 61 5.4 NNE 17 26 9 14 1013.3 1013.1 0.0
02/03:30pm 30.0 30.5 21.1 59 5.9 NNE 20 32 11 17 1013.3 1013.1 0.0
02/03:00pm 31.2 32.8 21.4 56 6.6 NE 15 28 8 15 1013.3 1013.1 0.0
02/02:30pm 31.1 31.5 20.7 54 6.9 NE 19 30 10 16 1013.6 1013.4 0.0
02/02:00pm 31.6 32.1 20.8 52 7.2 NE 19 28 10 15 1013.6 1013.4 0.0
02/01:30pm 32.0 32.4 20.6 51 7.6 NE 19 30 10 16 1013.6 1013.4 0.0
02/01:00pm 31.8 32.0 20.1 50 7.8 ENE 19 28 10 15 1013.8 1013.6 0.0
02/12:30pm 32.7 33.9 20.6 49 8.1 NE 15 28 8 15 1014.0 1013.8 0.0
02/12:00pm 32.0 33.2 19.9 48 8.0 NE 13 28 7 15 1014.3 1014.1 0.0
02/11:30am 31.9 33.0 20.5 51 7.6 NE 15 24 8 13 1014.4 1014.2 0.0
02/11:00am 30.7 32.5 20.3 53 6.9 N 11 20 6 11 1014.8 1014.6 0.0
02/10:30am 30.7 31.8 19.7 52 7.2 N 13 19 7 10 1015.1 1014.9 0.0
02/10:00am 30.4 32.3 19.7 52 7.0 NNE 9 17 5 9 1015.1 1014.9 0.0
02/09:30am 28.9 29.7 19.8 58 6.0 N 15 20 8 11 1015.1 1014.9 0.0
02/09:00am 29.8 31.5 20.9 59 5.9 NNE 13 20 7 11 1015.1 1014.9 0.0
02/08:30am 29.3 31.0 21.0 61 5.5 N 13 22 7 12 1015.4 1015.2 0.0
02/08:00am 28.7 31.1 21.5 65 4.8 N 11 19 6 10 1015.4 1015.2 0.0
02/07:30am 28.6 30.5 21.4 65 4.8 NNE 13 20 7 11 1015.2 1015.0 0.0
02/07:00am 27.3 30.3 22.0 73 3.6 NE 9 15 5 8 1015.2 1015.0 0.0
02/06:30am 27.5 30.9 22.7 75 3.3 NE 9 15 5 8 1014.9 1014.7 0.0
02/06:00am 25.8 30.7 23.1 85 1.8 NE 2 7 1 4 1014.5 1014.3 0.0
02/05:30am 24.2 29.1 22.3 89 1.3 CALM 0 0 0 0 1014.1 1013.9 0.0
02/05:00am 24.3 27.9 22.4 89 1.3 NNE 7 9 4 5 1013.6 1013.4 0.0
02/04:30am 24.7 28.6 22.6 88 1.4 NNE 6 9 3 5 1013.4 1013.2 0.0
02/04:00am 24.7 29.4 22.0 85 1.8 CALM 0 0 0 0 1013.2 1013.0 0.0
02/03:30am 25.1 28.3 22.4 85 1.8 NE 9 19 5 10 1012.9 1012.7 0.0
02/03:00am 25.3 29.0 22.6 85 1.8 NE 7 11 4 6 1013.0 1012.8 0.0
02/02:30am 25.2 29.0 22.7 86 1.7 NNE 7 13 4 7 1013.1 1012.9 0.0
02/02:00am 25.1 28.8 22.6 86 1.7 NE 7 13 4 7 1013.2 1013.0 0.0
02/01:30am 25.2 28.7 22.9 87 1.6 NE 9 13 5 7 1013.4 1013.2 0.0
02/01:00am 25.4 28.8 22.7 85 1.8 NE 9 13 5 7 1013.7 1013.5 0.0
02/12:30am 25.4 29.5 22.9 86 1.7 NE 6 13 3 7 1013.9 1013.7 0.0
02/12:00am 25.3 28.8 22.8 86 1.7 NE 9 17 5 9 1014.0 1013.8 0.0
 
Date/Time
EST
Temp
°C
App
Temp
°C
Dew
Point
°C
Rel
Hum
%
Delta-T
°C
Wind Press
QNH
hPa
Press
MSL
hPa
Rain since
9am
mm
Dir  Spd
km/h
Gust
km/h
Spd
kts
Gust
kts
01/11:30pm 25.5 28.8 22.6 84 2.0 NE 9 15 5 8 1014.3 1014.1 0.0
01/11:00pm 25.7 28.7 22.6 83 2.1 NNE 11 20 6 11 1014.8 1014.6 0.0
01/10:30pm 25.7 28.8 22.8 84 2.0 NNE 11 17 6 9 1014.8 1014.6 0.0
01/10:00pm 25.2 28.9 22.5 85 1.8 NNE 7 13 4 7 1014.8 1014.6 0.0
01/09:30pm 25.3 28.9 22.4 84 1.9 NE 7 15 4 8 1014.8 1014.6 0.0
01/09:00pm 25.5 28.6 22.2 82 2.2 NE 9 13 5 7 1014.8 1014.6 0.0
01/08:30pm 25.7 28.8 22.2 81 2.3 NE 9 17 5 9 1014.5 1014.3 0.0
01/08:00pm 25.9 28.3 22.2 80 2.5 NE 13 19 7 10 1014.3 1014.1 0.0
01/07:30pm 26.2 28.7 21.8 77 2.9 NE 11 19 6 10 1014.1 1013.9 0.0
01/07:00pm 26.5 28.9 21.5 74 3.3 NE 11 20 6 11 1013.7 1013.5 0.0
01/06:30pm 26.8 28.2 21.1 71 3.8 NNE 15 22 8 12 1013.5 1013.3 0.0
01/06:00pm 27.4 28.6 21.4 70 4.0 NNE 17 28 9 15 1013.2 1013.0 0.0
01/05:30pm 28.5 30.0 21.3 65 4.8 NNE 15 24 8 13 1012.8 1012.6 0.0
01/05:00pm 28.8 29.9 21.3 64 5.0 NNE 17 24 9 13 1012.7 1012.5 0.0
01/04:30pm 29.3 29.5 20.2 58 6.0 NNE 19 28 10 15 1012.5 1012.3 0.0
01/04:00pm 30.3 30.8 19.3 51 7.2 NNE 15 28 8 15 1012.6 1012.4 0.0
01/03:30pm 30.0 29.7 19.1 52 7.1 NNE 19 30 10 16 1012.8 1012.6 0.0
01/03:00pm 30.3 30.3 19.0 50 7.3 NNE 17 28 9 15 1013.1 1012.9 0.0
01/02:30pm 30.7 30.8 19.1 50 7.6 NE 17 26 9 14 1013.4 1013.2 0.0
01/02:00pm 31.5 31.7 18.5 46 8.4 NNE 15 28 8 15 1013.6 1013.4 0.0
01/01:30pm 30.6 30.2 18.0 47 8.1 N 17 24 9 13 1014.1 1013.9 0.0
01/01:00pm 30.5 30.1 17.2 44 8.4 NNE 15 24 8 13 1014.4 1014.2 0.0
01/12:30pm 31.5 31.0 17.0 41 9.2 N 15 26 8 14 1014.8 1014.6 0.0
01/12:00pm 30.8 30.4 17.1 43 8.7 N 15 30 8 16 1015.0 1014.8 0.0

Other formats

Comma delimited format used in spreadsheet applications
http://www.bom.gov.au/fwo/IDQ60801/IDQ60801.95370.axf

JavaScript Object Notation format (JSON) in row-major order
http://www.bom.gov.au/fwo/IDQ60801/IDQ60801.95370.json

Data quality

Most of these data are generated automatically and are frequently updated. Quality checks on data are not normally performed. It is possible for incorrect values to appear. Refer to information at About Latest Weather Observations and please check the disclaimer before using these data.